createdAt,value
2023-02-26T00:00:14.862Z,16.32
2023-02-26T00:02:42.174Z,16.28
2023-02-26T00:05:09.272Z,16.31
2023-02-26T00:07:36.047Z,16.27
2023-02-26T00:10:02.927Z,16.25
2023-02-26T00:12:30.294Z,16.24
2023-02-26T00:14:57.229Z,16.21
2023-02-26T00:17:49.090Z,16.18
2023-02-26T00:20:17.262Z,16.19
2023-02-26T00:22:44.616Z,16.17
2023-02-26T00:25:12.350Z,16.16
2023-02-26T00:27:39.381Z,16.14
2023-02-26T00:30:08.569Z,16.12
2023-02-26T00:32:36.206Z,16.11
2023-02-26T00:35:03.161Z,16.10
2023-02-26T00:38:04.554Z,16.07
2023-02-26T00:40:47.336Z,16.04
2023-02-26T00:43:19.154Z,16.04
2023-02-26T00:45:57.846Z,16.01
2023-02-26T00:48:50.711Z,15.98
2023-02-26T00:51:27.980Z,15.97
2023-02-26T00:54:15.481Z,15.96
2023-02-26T00:56:42.120Z,15.94
2023-02-26T00:59:08.731Z,15.92
2023-02-26T01:01:35.330Z,15.90
2023-02-26T01:04:02.199Z,15.89
2023-02-26T01:06:33.266Z,15.86
2023-02-26T01:09:15.715Z,15.84
2023-02-26T01:11:42.484Z,15.85
2023-02-26T01:14:09.364Z,15.83
2023-02-26T01:16:48.556Z,15.81
2023-02-26T01:19:30.627Z,15.78
2023-02-26T01:22:07.576Z,15.77
2023-02-26T01:24:36.438Z,15.77
2023-02-26T01:27:03.605Z,15.75
2023-02-26T01:29:30.266Z,15.73
2023-02-26T01:32:21.172Z,15.70
2023-02-26T01:34:53.714Z,15.70
2023-02-26T01:37:32.292Z,15.68
2023-02-26T01:40:24.179Z,15.67
2023-02-26T01:42:54.500Z,15.66
2023-02-26T01:45:31.539Z,15.64
2023-02-26T01:48:06.852Z,15.62
2023-02-26T01:50:36.735Z,15.62
2023-02-26T01:53:24.587Z,15.59
2023-02-26T01:56:17.197Z,15.58
2023-02-26T01:58:46.797Z,15.58
2023-02-26T02:01:13.342Z,15.57
2023-02-26T02:03:43.085Z,15.54
2023-02-26T02:06:16.550Z,15.53
2023-02-26T02:08:43.383Z,15.52
2023-02-26T02:11:12.405Z,15.51
2023-02-26T02:13:57.360Z,15.49
2023-02-26T02:16:46.584Z,15.48
2023-02-26T02:19:34.937Z,15.48
2023-02-26T02:22:27.205Z,15.45
2023-02-26T02:25:09.036Z,15.47
2023-02-26T02:27:51.920Z,15.45
2023-02-26T02:30:26.474Z,15.45
2023-02-26T02:33:03.513Z,15.45
2023-02-26T02:35:41.473Z,15.43
2023-02-26T02:38:16.500Z,15.42
2023-02-26T02:40:48.893Z,15.42
2023-02-26T02:43:17.690Z,15.42
2023-02-26T02:45:49.197Z,15.40
2023-02-26T02:48:26.079Z,15.39
2023-02-26T02:51:00.151Z,15.39
2023-02-26T02:53:34.290Z,15.38
2023-02-26T02:56:15.770Z,15.37
2023-02-26T02:58:55.171Z,15.36
2023-02-26T03:01:25.792Z,15.34
2023-02-26T03:04:00.621Z,15.34
2023-02-26T03:06:27.207Z,15.33
2023-02-26T03:08:54.387Z,15.31
2023-02-26T03:11:22.243Z,15.30
2023-02-26T03:13:50.542Z,15.29
2023-02-26T03:16:39.594Z,15.27
2023-02-26T03:19:27.765Z,15.25
2023-02-26T03:21:58.237Z,15.25
2023-02-26T03:24:51.833Z,15.24
2023-02-26T03:27:40.157Z,15.21
2023-02-26T03:30:15.971Z,15.22
2023-02-26T03:32:53.522Z,15.20
2023-02-26T03:35:52.002Z,15.18
2023-02-26T03:38:37.946Z,15.17
2023-02-26T03:41:11.109Z,15.17
2023-02-26T03:43:46.185Z,15.16
2023-02-26T03:46:19.387Z,15.16
2023-02-26T03:48:51.264Z,15.14
2023-02-26T03:51:19.047Z,15.14
2023-02-26T03:53:58.550Z,15.11
2023-02-26T03:56:40.506Z,15.10
2023-02-26T03:59:07.687Z,15.11
2023-02-26T04:01:44.221Z,15.08
2023-02-26T04:04:16.821Z,15.09
2023-02-26T04:06:44.327Z,15.09
2023-02-26T04:09:11.893Z,15.08
2023-02-26T04:11:39.737Z,15.07
2023-02-26T04:14:06.345Z,15.06
2023-02-26T04:16:32.889Z,15.06
2023-02-26T04:18:59.407Z,15.06
2023-02-26T04:21:25.918Z,15.07
2023-02-26T04:23:52.478Z,15.05
2023-02-26T04:26:19.003Z,15.04
2023-02-26T04:28:45.513Z,15.04
2023-02-26T04:31:12.280Z,15.03
2023-02-26T04:33:38.981Z,15.02
2023-02-26T04:36:05.979Z,15.02
2023-02-26T04:38:32.740Z,15.02
2023-02-26T04:40:59.265Z,15.00
2023-02-26T04:43:25.857Z,14.99
2023-02-26T04:45:52.448Z,14.98
2023-02-26T04:48:19.092Z,14.98
2023-02-26T04:50:45.902Z,14.97
2023-02-26T04:53:12.802Z,14.97
2023-02-26T04:55:41.025Z,14.93
2023-02-26T04:58:08.410Z,14.94
2023-02-26T05:00:35.377Z,14.94
2023-02-26T05:03:01.900Z,14.93
2023-02-26T05:05:28.423Z,14.91
2023-02-26T05:07:56.774Z,14.91
2023-02-26T05:10:24.116Z,14.91
2023-02-26T05:12:50.670Z,14.89
2023-02-26T05:15:17.279Z,14.89
2023-02-26T05:17:43.875Z,14.87
2023-02-26T05:20:11.078Z,14.87
2023-02-26T05:22:38.831Z,14.86
2023-02-26T05:25:06.317Z,14.85
2023-02-26T05:27:33.567Z,14.85
2023-02-26T05:30:00.211Z,14.84
2023-02-26T05:32:27.157Z,14.84
2023-02-26T05:34:53.785Z,14.83
2023-02-26T05:37:20.267Z,14.82
2023-02-26T05:39:46.785Z,14.82
2023-02-26T05:42:13.278Z,14.82
2023-02-26T05:44:39.764Z,14.83
2023-02-26T05:47:06.597Z,14.82
2023-02-26T05:49:33.186Z,14.82
2023-02-26T05:51:59.805Z,14.82
2023-02-26T05:54:26.463Z,14.82
2023-02-26T05:56:53.032Z,14.81
2023-02-26T05:59:19.513Z,14.80
2023-02-26T06:01:46.791Z,14.79
2023-02-26T06:04:13.435Z,14.78
2023-02-26T06:06:39.992Z,14.78
2023-02-26T06:09:06.552Z,14.76
2023-02-26T06:11:34.078Z,14.76
2023-02-26T06:14:00.861Z,14.75
2023-02-26T06:16:28.193Z,14.74
2023-02-26T06:18:54.961Z,14.74
2023-02-26T06:21:21.530Z,14.73
2023-02-26T06:23:48.058Z,14.73
2023-02-26T06:26:14.663Z,14.72
2023-02-26T06:28:41.772Z,14.72
2023-02-26T06:31:08.317Z,14.71
2023-02-26T06:33:34.837Z,14.69
2023-02-26T06:36:02.376Z,14.67
2023-02-26T06:38:29.228Z,14.69
2023-02-26T06:40:55.852Z,14.67
2023-02-26T06:43:22.710Z,14.66
2023-02-26T06:45:49.629Z,14.67
2023-02-26T06:48:16.258Z,14.66
2023-02-26T06:50:42.822Z,14.65
2023-02-26T06:53:09.660Z,14.64
2023-02-26T06:55:36.255Z,14.63
2023-02-26T06:58:02.787Z,14.63
2023-02-26T07:00:29.334Z,14.62
2023-02-26T07:02:56.124Z,14.61
2023-02-26T07:05:22.848Z,14.61
2023-02-26T07:07:49.379Z,14.60
2023-02-26T07:10:15.995Z,14.59
2023-02-26T07:12:42.672Z,14.59
2023-02-26T07:15:09.573Z,14.58
2023-02-26T07:17:36.288Z,14.57
2023-02-26T07:20:06.553Z,14.56
2023-02-26T07:22:33.862Z,14.56
2023-02-26T07:25:00.468Z,14.57
2023-02-26T07:27:27.233Z,14.57
2023-02-26T07:29:53.737Z,14.58
2023-02-26T07:32:20.304Z,14.59
2023-02-26T07:34:46.961Z,14.58
2023-02-26T07:37:13.692Z,14.60
2023-02-26T07:39:40.325Z,14.59
2023-02-26T07:42:06.870Z,14.59
2023-02-26T07:44:33.730Z,14.61
2023-02-26T07:47:00.271Z,14.60
2023-02-26T07:49:26.803Z,14.61
2023-02-26T07:51:53.614Z,14.61
2023-02-26T07:54:20.498Z,14.63
2023-02-26T07:56:47.079Z,14.65
2023-02-26T07:59:13.676Z,14.69
2023-02-26T08:01:40.268Z,14.74
2023-02-26T08:04:07.165Z,14.78
2023-02-26T08:06:34.576Z,14.82
2023-02-26T08:09:02.371Z,14.88
2023-02-26T08:11:29.216Z,14.93
2023-02-26T08:13:55.750Z,14.97
2023-02-26T08:16:22.258Z,15.02
2023-02-26T08:18:48.788Z,15.07
2023-02-26T08:21:15.379Z,15.13
2023-02-26T08:23:41.886Z,15.20
2023-02-26T08:26:10.252Z,15.28
2023-02-26T08:28:37.314Z,15.37
2023-02-26T08:31:04.083Z,15.43
2023-02-26T08:33:31.178Z,15.51
2023-02-26T08:35:59.087Z,15.58
2023-02-26T08:38:27.725Z,15.66
2023-02-26T08:40:54.389Z,15.73
2023-02-26T08:43:21.527Z,15.81
2023-02-26T08:45:48.612Z,15.86
2023-02-26T08:48:15.377Z,15.93
2023-02-26T08:50:41.961Z,16.00
2023-02-26T08:53:08.534Z,16.10
2023-02-26T08:55:35.030Z,16.17
2023-02-26T08:58:01.669Z,16.23
2023-02-26T09:00:28.514Z,16.28
2023-02-26T09:02:55.065Z,16.35
2023-02-26T09:05:22.075Z,16.41
2023-02-26T09:07:48.686Z,16.46
2023-02-26T09:10:16.207Z,16.50
2023-02-26T09:12:43.032Z,16.54
2023-02-26T09:15:10.950Z,16.56
2023-02-26T09:17:37.768Z,16.60
2023-02-26T09:20:05.175Z,16.65
2023-02-26T09:22:31.734Z,16.72
2023-02-26T09:24:58.546Z,16.80
2023-02-26T09:27:25.198Z,16.91
2023-02-26T09:29:51.717Z,17.01
2023-02-26T09:32:18.440Z,17.12
2023-02-26T09:34:44.982Z,17.25
2023-02-26T09:37:11.511Z,17.38
2023-02-26T09:39:38.121Z,17.49
2023-02-26T09:42:30.891Z,17.63
2023-02-26T09:45:00.096Z,17.79
2023-02-26T09:47:41.859Z,17.94
2023-02-26T09:50:20.273Z,18.09
2023-02-26T09:52:54.554Z,18.22
2023-02-26T09:55:31.620Z,18.36
2023-02-26T09:58:03.507Z,18.50
2023-02-26T10:00:43.807Z,18.62
2023-02-26T10:03:39.939Z,18.74
2023-02-26T10:06:21.381Z,18.89
2023-02-26T10:09:26.010Z,19.02
2023-02-26T10:11:52.373Z,19.12
2023-02-26T10:14:37.413Z,19.24
2023-02-26T10:17:16.590Z,19.36
2023-02-26T10:19:47.822Z,19.45
2023-02-26T10:22:28.512Z,19.54
2023-02-26T10:25:23.929Z,19.62
2023-02-26T10:28:01.690Z,19.70
2023-02-26T10:31:04.919Z,19.77
2023-02-26T10:34:07.341Z,19.87
2023-02-26T10:36:51.959Z,19.95
2023-02-26T10:39:44.994Z,20.00
2023-02-26T10:42:33.762Z,20.06
2023-02-26T10:45:15.693Z,20.14
2023-02-26T10:47:56.586Z,20.21
2023-02-26T10:50:24.441Z,20.28
2023-02-26T10:52:52.784Z,20.32
2023-02-26T10:55:28.474Z,20.37
2023-02-26T10:58:24.848Z,20.39
2023-02-26T11:00:54.259Z,20.43
2023-02-26T11:03:22.301Z,20.44
2023-02-26T11:05:48.950Z,20.46
2023-02-26T11:08:20.700Z,20.47
2023-02-26T11:10:56.476Z,20.46
2023-02-26T11:13:26.127Z,20.46
2023-02-26T11:15:55.222Z,20.44
2023-02-26T11:18:27.320Z,20.43
2023-02-26T11:20:58.176Z,20.42
2023-02-26T11:23:29.626Z,20.42
2023-02-26T11:26:18.676Z,20.41
2023-02-26T11:28:53.537Z,20.43
2023-02-26T11:31:23.136Z,20.45
2023-02-26T11:33:53.368Z,20.46
2023-02-26T11:36:22.851Z,20.46
2023-02-26T11:38:56.429Z,20.48
2023-02-26T11:41:24.608Z,20.48
2023-02-26T11:44:05.130Z,20.48
2023-02-26T11:46:31.749Z,20.50
2023-02-26T11:49:01.247Z,20.49
2023-02-26T11:51:29.918Z,20.50
2023-02-26T11:54:02.814Z,20.51
2023-02-26T11:56:40.294Z,20.52
2023-02-26T11:59:16.797Z,20.54
2023-02-26T12:01:43.402Z,20.55
2023-02-26T12:04:12.830Z,20.56
2023-02-26T12:06:40.043Z,20.58
2023-02-26T12:09:12.696Z,20.57
2023-02-26T12:12:00.832Z,20.57
2023-02-26T12:14:36.636Z,20.59
2023-02-26T12:17:18.782Z,20.61
2023-02-26T12:20:19.943Z,20.63
2023-02-26T12:22:55.822Z,20.66
2023-02-26T12:25:46.390Z,20.68
2023-02-26T12:28:39.391Z,20.70
2023-02-26T12:31:18.185Z,20.75
2023-02-26T12:34:02.336Z,20.76
2023-02-26T12:36:55.018Z,20.77
2023-02-26T12:39:37.117Z,20.80
2023-02-26T12:42:31.417Z,20.83
2023-02-26T12:45:16.666Z,20.86
2023-02-26T12:48:05.228Z,20.93
2023-02-26T12:50:43.856Z,20.95
2023-02-26T12:53:41.844Z,20.98
2023-02-26T12:56:26.320Z,21.02
2023-02-26T12:59:19.048Z,21.06
2023-02-26T13:02:01.756Z,21.13
2023-02-26T13:04:56.190Z,21.14
2023-02-26T13:07:42.290Z,21.17
2023-02-26T13:10:40.136Z,21.24
2023-02-26T13:13:47.423Z,21.25
2023-02-26T13:16:26.234Z,21.29
2023-02-26T13:19:31.074Z,21.29
2023-02-26T13:22:03.420Z,21.33
2023-02-26T13:24:40.231Z,21.34
2023-02-26T13:27:09.817Z,21.36
2023-02-26T13:29:44.058Z,21.35
2023-02-26T13:32:25.877Z,21.34
2023-02-26T13:35:03.755Z,21.34
2023-02-26T13:37:55.747Z,21.29
2023-02-26T13:40:47.133Z,21.27
2023-02-26T13:43:16.919Z,21.27
2023-02-26T13:46:00.902Z,21.20
2023-02-26T13:48:30.023Z,21.16
2023-02-26T13:51:10.764Z,21.18
2023-02-26T13:54:02.322Z,21.16
2023-02-26T13:56:31.582Z,21.16
2023-02-26T13:59:13.534Z,21.15
2023-02-26T14:01:53.704Z,21.14
2023-02-26T14:04:21.514Z,21.16
2023-02-26T14:06:57.244Z,21.16
2023-02-26T14:09:23.770Z,21.16
2023-02-26T14:12:12.950Z,21.12
2023-02-26T14:14:58.179Z,21.10
2023-02-26T14:17:39.967Z,21.08
2023-02-26T14:20:09.056Z,21.08
2023-02-26T14:22:41.804Z,21.08
2023-02-26T14:25:34.968Z,21.03
2023-02-26T14:28:26.758Z,21.03
2023-02-26T14:31:05.619Z,21.01
2023-02-26T14:33:44.696Z,21.00
2023-02-26T14:36:20.223Z,20.97
2023-02-26T14:38:48.748Z,20.95
2023-02-26T14:41:36.441Z,20.94
2023-02-26T14:44:37.274Z,20.91
2023-02-26T14:47:04.243Z,20.93
2023-02-26T14:49:37.258Z,20.90
2023-02-26T14:52:39.429Z,20.86
2023-02-26T14:55:45.834Z,20.85
2023-02-26T14:58:31.015Z,20.83
2023-02-26T15:01:30.699Z,20.81
2023-02-26T15:04:18.939Z,20.79
2023-02-26T15:07:13.238Z,20.78
2023-02-26T15:10:09.729Z,20.75
2023-02-26T15:13:13.849Z,20.74
2023-02-26T15:15:46.251Z,20.74
2023-02-26T15:18:42.354Z,20.70
2023-02-26T15:21:39.024Z,20.68
2023-02-26T15:24:07.634Z,20.67
2023-02-26T15:26:37.256Z,20.62
2023-02-26T15:29:07.170Z,20.60
2023-02-26T15:31:43.124Z,20.56
2023-02-26T15:34:12.876Z,20.54
2023-02-26T15:36:44.789Z,20.51
2023-02-26T15:39:16.109Z,20.47
2023-02-26T15:41:43.282Z,20.45
2023-02-26T15:44:14.737Z,20.42
2023-02-26T15:46:45.466Z,20.40
2023-02-26T15:49:26.826Z,20.36
2023-02-26T15:51:53.851Z,20.37
2023-02-26T15:54:24.086Z,20.35
2023-02-26T15:56:51.330Z,20.33
2023-02-26T15:59:22.029Z,20.30
2023-02-26T16:01:50.160Z,20.29
2023-02-26T16:04:19.840Z,20.27
2023-02-26T16:06:50.589Z,20.26
2023-02-26T16:09:31.348Z,20.24
2023-02-26T16:12:07.804Z,20.22
2023-02-26T16:14:39.276Z,20.21
2023-02-26T16:17:11.082Z,20.21
2023-02-26T16:19:45.862Z,20.19
2023-02-26T16:22:28.442Z,20.17
2023-02-26T16:25:02.706Z,20.17
2023-02-26T16:27:31.865Z,20.17
2023-02-26T16:30:01.669Z,20.16
2023-02-26T16:32:33.894Z,20.15
2023-02-26T16:35:08.159Z,20.14
2023-02-26T16:37:37.800Z,20.03
2023-02-26T16:40:19.037Z,19.78
2023-02-26T16:42:51.565Z,19.65
2023-02-26T16:45:25.337Z,19.53
2023-02-26T16:47:56.598Z,19.47
2023-02-26T16:50:29.573Z,19.38
2023-02-26T16:53:18.504Z,19.27
2023-02-26T16:55:56.732Z,19.21
2023-02-26T16:58:24.189Z,19.20
2023-02-26T17:00:58.147Z,19.16
2023-02-26T17:03:26.671Z,19.14
2023-02-26T17:06:04.363Z,19.10
2023-02-26T17:08:42.053Z,19.10
2023-02-26T17:11:21.685Z,19.08
2023-02-26T17:14:15.351Z,19.06
2023-02-26T17:16:42.000Z,19.07
2023-02-26T17:19:09.507Z,19.04
2023-02-26T17:21:41.944Z,19.02
2023-02-26T17:24:13.514Z,19.01
2023-02-26T17:26:40.163Z,18.96
2023-02-26T17:29:06.889Z,18.94
2023-02-26T17:31:33.403Z,18.93
2023-02-26T17:33:59.957Z,18.90
2023-02-26T17:36:26.669Z,18.87
2023-02-26T17:38:53.272Z,18.86
2023-02-26T17:41:19.941Z,18.83
2023-02-26T17:43:46.582Z,18.81
2023-02-26T17:46:13.252Z,18.79
2023-02-26T17:48:40.185Z,18.77
2023-02-26T17:51:07.289Z,18.75
2023-02-26T17:53:40.840Z,18.72
2023-02-26T17:56:11.921Z,18.70
2023-02-26T17:58:38.584Z,18.72
2023-02-26T18:01:05.312Z,18.70
2023-02-26T18:03:32.334Z,18.67
2023-02-26T18:05:59.785Z,18.66
2023-02-26T18:08:31.574Z,18.67
2023-02-26T18:10:59.458Z,18.67
2023-02-26T18:13:27.205Z,18.69
2023-02-26T18:15:56.442Z,18.70
2023-02-26T18:18:24.306Z,18.72
2023-02-26T18:20:51.981Z,18.73
2023-02-26T18:23:18.895Z,18.72
2023-02-26T18:25:47.934Z,18.73
2023-02-26T18:28:24.315Z,18.74
2023-02-26T18:30:52.264Z,18.74
2023-02-26T18:33:20.240Z,18.76
2023-02-26T18:35:51.214Z,18.76
2023-02-26T18:38:22.384Z,18.76
2023-02-26T18:40:49.408Z,18.76
2023-02-26T18:43:16.058Z,18.76
2023-02-26T18:45:45.077Z,18.76
2023-02-26T18:48:15.909Z,18.74
2023-02-26T18:50:43.906Z,18.74
2023-02-26T18:53:11.099Z,18.76
2023-02-26T18:55:37.888Z,18.77
2023-02-26T18:58:04.927Z,18.77
2023-02-26T19:00:31.848Z,18.77
2023-02-26T19:02:58.388Z,18.76
2023-02-26T19:05:26.573Z,18.77
2023-02-26T19:07:54.304Z,18.76
2023-02-26T19:10:21.390Z,18.76
2023-02-26T19:12:47.947Z,18.76
2023-02-26T19:15:14.545Z,18.77
2023-02-26T19:17:42.286Z,18.77
2023-02-26T19:20:10.687Z,18.76
2023-02-26T19:22:37.463Z,18.74
2023-02-26T19:25:05.052Z,18.73
2023-02-26T19:27:31.971Z,18.71
2023-02-26T19:29:58.524Z,18.71
2023-02-26T19:32:26.604Z,18.69
2023-02-26T19:34:53.225Z,18.68
2023-02-26T19:37:19.911Z,18.67
2023-02-26T19:39:46.467Z,18.66
2023-02-26T19:42:13.130Z,18.67
2023-02-26T19:44:39.670Z,18.63
2023-02-26T19:47:06.496Z,18.63
2023-02-26T19:49:33.510Z,18.63
2023-02-26T19:52:00.098Z,18.62
2023-02-26T19:54:26.651Z,18.64
2023-02-26T19:56:53.212Z,18.62
2023-02-26T19:59:19.735Z,18.62
2023-02-26T20:01:49.226Z,18.60
2023-02-26T20:04:17.160Z,18.62
2023-02-26T20:06:43.919Z,18.61
2023-02-26T20:09:12.127Z,18.62
2023-02-26T20:11:39.620Z,18.61
2023-02-26T20:14:06.589Z,18.61
2023-02-26T20:16:33.144Z,18.61
2023-02-26T20:19:00.164Z,18.60
2023-02-26T20:21:27.375Z,18.60
2023-02-26T20:23:54.160Z,18.59
2023-02-26T20:26:20.856Z,18.57
2023-02-26T20:28:47.508Z,18.50
2023-02-26T20:31:14.270Z,18.45
2023-02-26T20:33:40.985Z,18.41
2023-02-26T20:36:08.942Z,18.37
2023-02-26T20:38:35.834Z,18.33
2023-02-26T20:41:02.838Z,18.29
2023-02-26T20:43:29.508Z,18.24
2023-02-26T20:45:56.612Z,18.21
2023-02-26T20:48:24.308Z,18.16
2023-02-26T20:50:53.517Z,18.14
2023-02-26T20:53:21.648Z,18.10
2023-02-26T20:55:48.726Z,18.06
2023-02-26T20:58:15.772Z,18.03
2023-02-26T21:00:42.850Z,18.00
2023-02-26T21:03:09.470Z,17.98
2023-02-26T21:05:36.020Z,17.93
2023-02-26T21:08:04.159Z,17.90
2023-02-26T21:10:32.686Z,17.86
2023-02-26T21:12:59.606Z,17.84
2023-02-26T21:15:26.127Z,17.81
2023-02-26T21:17:53.123Z,17.77
2023-02-26T21:20:22.076Z,17.73
2023-02-26T21:22:49.513Z,17.70
2023-02-26T21:25:16.668Z,17.68
2023-02-26T21:27:43.244Z,17.64
2023-02-26T21:30:12.204Z,17.61
2023-02-26T21:32:39.452Z,17.60
2023-02-26T21:35:07.681Z,17.57
2023-02-26T21:37:34.247Z,17.54
2023-02-26T21:40:00.845Z,17.52
2023-02-26T21:42:27.523Z,17.49
2023-02-26T21:44:54.330Z,17.45
2023-02-26T21:47:20.839Z,17.44
2023-02-26T21:49:47.339Z,17.42
2023-02-26T21:52:14.076Z,17.40
2023-02-26T21:54:40.935Z,17.38
2023-02-26T21:57:07.874Z,17.36
2023-02-26T21:59:35.270Z,17.33
2023-02-26T22:02:02.709Z,17.31
2023-02-26T22:04:29.618Z,17.28
2023-02-26T22:06:56.285Z,17.26
2023-02-26T22:09:23.001Z,17.24
2023-02-26T22:11:49.550Z,17.22
2023-02-26T22:14:16.138Z,17.20
2023-02-26T22:16:42.808Z,17.19
2023-02-26T22:19:09.403Z,17.18
2023-02-26T22:21:35.951Z,17.15
2023-02-26T22:24:03.817Z,17.14
2023-02-26T22:26:30.745Z,17.12
2023-02-26T22:28:59.596Z,17.11
2023-02-26T22:31:31.761Z,17.10
2023-02-26T22:33:59.077Z,17.08
2023-02-26T22:36:25.903Z,17.07
2023-02-26T22:38:52.489Z,17.04
2023-02-26T22:41:19.086Z,17.02
2023-02-26T22:43:45.610Z,17.02
2023-02-26T22:46:12.247Z,16.99
2023-02-26T22:48:38.841Z,16.98
2023-02-26T22:51:05.539Z,16.96
2023-02-26T22:53:32.214Z,16.95
2023-02-26T22:55:59.065Z,16.94
2023-02-26T22:58:25.629Z,16.93
2023-02-26T23:00:59.378Z,16.89
2023-02-26T23:03:25.816Z,16.88
2023-02-26T23:05:52.823Z,16.91
2023-02-26T23:08:19.374Z,16.88
2023-02-26T23:10:45.893Z,16.86
2023-02-26T23:13:12.642Z,16.86
2023-02-26T23:15:39.182Z,16.83
2023-02-26T23:18:06.069Z,16.82
2023-02-26T23:20:32.590Z,16.81
2023-02-26T23:22:59.094Z,16.80
2023-02-26T23:25:26.617Z,16.77
2023-02-26T23:27:53.582Z,16.77
2023-02-26T23:30:21.891Z,16.75
2023-02-26T23:32:48.364Z,16.74
2023-02-26T23:35:15.223Z,16.72
2023-02-26T23:37:41.797Z,16.71
2023-02-26T23:40:09.053Z,16.70
2023-02-26T23:42:35.663Z,16.69
2023-02-26T23:45:02.201Z,16.67
2023-02-26T23:47:28.797Z,16.67
2023-02-26T23:49:55.435Z,16.66
2023-02-26T23:52:24.949Z,16.65
2023-02-26T23:54:52.393Z,16.63
2023-02-26T23:57:18.866Z,16.62
2023-02-26T23:59:45.401Z,16.61
